Terminal Aerodrome Forecast
Issued by NWS Cleveland, OH

Home | Current Version | Previous Version | Graphics & Text | Print | Product List | Glossary On
Versions: 1 2 3 4 5 6 7 8 9 10 11 12 13 14 15 16 17 18 19
469
FTUS41 KCLE 042337
TAFCAK
TAF
KCAK 042337Z 0500/0524 28010KT 6SM -SHSN OVC025
      TEMPO 0501/0505 3SM -SHSN OVC015
     FM051600 27008KT P6SM BKN035=

USA.gov is the U.S. government's official web portal to all federal, state and local government web resources and services.